createdAt,value
2023-03-16T01:12:02.488Z,79.65
2023-03-16T03:11:51.535Z,79.27
2023-03-16T03:40:19.373Z,79.33
2023-03-16T03:49:59.617Z,79.37
2023-03-16T03:54:18.795Z,79.03
2023-03-16T04:10:35.895Z,79.01
2023-03-16T04:24:43.390Z,78.92
2023-03-16T04:27:12.234Z,79.19
2023-03-16T04:32:35.257Z,79.33
2023-03-16T04:35:02.093Z,79.01
2023-03-16T04:37:42.303Z,79.04
2023-03-16T04:40:15.826Z,78.89
2023-03-16T04:42:47.157Z,78.78
2023-03-16T04:45:18.544Z,79.11
2023-03-16T04:47:46.852Z,78.90
2023-03-16T04:50:13.775Z,78.66
2023-03-16T04:52:42.565Z,78.69
2023-03-16T04:55:09.581Z,78.76
2023-03-16T04:57:37.685Z,78.86
2023-03-16T05:00:19.240Z,78.66
2023-03-16T05:02:54.196Z,78.48
2023-03-16T05:05:22.178Z,78.63
2023-03-16T05:07:49.309Z,78.82
2023-03-16T05:10:19.307Z,78.72
2023-03-16T05:12:46.982Z,78.70
2023-03-16T05:15:14.507Z,78.72
2023-03-16T05:17:43.150Z,78.43
2023-03-16T05:20:26.136Z,78.38
2023-03-16T05:23:18.375Z,78.50
2023-03-16T05:25:53.215Z,78.22
2023-03-16T05:28:23.792Z,78.36
2023-03-16T05:31:05.566Z,78.52
2023-03-16T05:34:00.817Z,78.31
2023-03-16T05:36:55.797Z,78.55
2023-03-16T05:39:49.710Z,78.51
2023-03-16T05:42:17.146Z,78.49
2023-03-16T05:45:11.156Z,78.57
2023-03-16T05:48:35.752Z,78.41
2023-03-16T05:55:09.016Z,78.58
2023-03-16T06:01:16.951Z,78.36
2023-03-16T06:41:07.116Z,79.12
2023-03-16T07:11:29.396Z,77.90
2023-03-16T07:36:21.784Z,77.12
2023-03-16T07:36:23.603Z,76.47
2023-03-16T07:38:55.645Z,76.50
2023-03-16T07:41:22.499Z,76.67
2023-03-16T07:43:52.207Z,76.27
2023-03-16T07:46:26.714Z,76.31
2023-03-16T07:48:58.534Z,75.78
2023-03-16T07:51:47.405Z,75.47
2023-03-16T07:54:22.630Z,75.14
2023-03-16T07:56:50.008Z,75.21
2023-03-16T07:59:49.805Z,74.68
2023-03-16T08:31:23.916Z,71.59
2023-03-16T08:43:42.930Z,70.10
2023-03-16T09:07:55.996Z,66.62
2023-03-16T10:09:17.333Z,57.92
2023-03-16T10:11:59.516Z,57.54
2023-03-16T10:14:43.586Z,57.45
2023-03-16T10:17:58.788Z,57.84
2023-03-16T10:21:15.012Z,57.70
2023-03-16T10:23:56.063Z,57.31
2023-03-16T10:27:17.043Z,57.08
2023-03-16T10:34:51.232Z,56.72
2023-03-16T10:38:06.191Z,56.41
2023-03-16T10:42:28.598Z,55.92
2023-03-16T10:47:57.916Z,55.11
2023-03-16T10:50:03.291Z,54.04
2023-03-16T11:19:58.364Z,52.71
2023-03-16T12:17:32.102Z,45.86
2023-03-16T13:25:56.216Z,40.40
2023-03-16T13:55:24.553Z,37.69
2023-03-16T14:06:16.400Z,35.93
2023-03-16T14:29:54.939Z,34.35
2023-03-16T14:44:34.584Z,35.51
2023-03-16T14:47:17.896Z,36.23
2023-03-16T14:49:49.899Z,35.40
2023-03-16T14:52:22.951Z,35.21
2023-03-16T14:54:49.889Z,35.59
2023-03-16T14:57:17.658Z,35.23
2023-03-16T14:59:50.382Z,35.03
2023-03-16T15:17:13.223Z,33.64
2023-03-16T15:33:11.040Z,32.96
2023-03-16T15:46:49.186Z,31.20
2023-03-16T15:49:16.201Z,30.99
2023-03-16T15:51:42.934Z,31.02
2023-03-16T15:54:11.767Z,30.57
2023-03-16T15:56:53.285Z,30.63
2023-03-16T15:59:23.547Z,30.57
2023-03-16T16:02:44.781Z,30.28
2023-03-16T16:05:18.833Z,30.39
2023-03-16T16:07:47.921Z,30.63
2023-03-16T16:10:19.870Z,30.60
2023-03-16T16:12:55.452Z,30.30
2023-03-16T16:15:27.409Z,30.61
2023-03-16T16:18:19.352Z,30.93
2023-03-16T16:20:41.635Z,30.82
2023-03-16T16:23:10.548Z,30.28
2023-03-16T16:25:42.032Z,31.00
2023-03-16T16:28:23.835Z,30.91
2023-03-16T16:30:51.189Z,31.52
2023-03-16T16:33:35.017Z,31.82
2023-03-16T16:36:07.497Z,32.62
2023-03-16T16:38:34.374Z,33.35
2023-03-16T16:41:09.799Z,33.75
2023-03-16T16:43:41.403Z,34.46
2023-03-16T16:46:26.616Z,34.83
2023-03-16T16:48:54.907Z,35.07
2023-03-16T16:51:27.059Z,35.97
2023-03-16T16:53:57.005Z,36.21
2023-03-16T16:56:35.628Z,37.15
2023-03-16T16:59:24.684Z,37.59
2023-03-16T17:01:54.530Z,37.93
2023-03-16T17:04:29.794Z,38.26
2023-03-16T17:07:00.931Z,38.15
2023-03-16T17:09:28.872Z,37.85
2023-03-16T17:11:58.963Z,38.05
2023-03-16T17:14:28.535Z,38.51
2023-03-16T17:16:56.119Z,38.65
2023-03-16T17:19:29.057Z,38.56
2023-03-16T17:21:57.472Z,39.07
2023-03-16T17:24:24.997Z,38.97
2023-03-16T17:27:00.373Z,39.33
2023-03-16T17:29:32.049Z,39.14
2023-03-16T17:32:04.077Z,39.31
2023-03-16T17:34:33.157Z,39.62
2023-03-16T17:37:00.425Z,39.06
2023-03-16T17:39:32.526Z,39.29
2023-03-16T17:42:01.816Z,39.27
2023-03-16T17:44:41.001Z,39.25
2023-03-16T17:47:14.953Z,39.03
2023-03-16T17:49:42.681Z,39.64
2023-03-16T17:52:19.029Z,39.43
2023-03-16T17:54:47.157Z,39.81
2023-03-16T17:57:48.860Z,39.96
2023-03-16T18:00:39.332Z,40.07
2023-03-16T18:03:13.233Z,40.26
2023-03-16T18:05:42.956Z,39.77
2023-03-16T18:08:21.097Z,40.10
2023-03-16T18:10:59.877Z,40.10
2023-03-16T18:13:33.514Z,40.24
2023-03-16T18:16:01.752Z,40.51
2023-03-16T18:18:34.775Z,40.67
2023-03-16T18:21:05.890Z,40.67
2023-03-16T18:23:40.573Z,41.02
2023-03-16T18:28:58.173Z,41.48
2023-03-16T18:31:27.850Z,41.60
2023-03-16T18:33:57.129Z,41.90
2023-03-16T18:36:32.891Z,41.79
2023-03-16T18:39:01.886Z,42.11
2023-03-16T18:41:31.926Z,42.05
2023-03-16T18:44:00.993Z,42.00
2023-03-16T18:46:34.694Z,42.46
2023-03-16T18:49:14.015Z,42.36
2023-03-16T18:51:42.380Z,42.28
2023-03-16T18:54:36.412Z,42.12
2023-03-16T18:57:04.495Z,42.47
2023-03-16T18:59:32.303Z,42.38
2023-03-16T19:02:08.281Z,42.83
2023-03-16T19:04:35.166Z,42.67
2023-03-16T19:07:12.628Z,42.68
2023-03-16T19:09:39.894Z,43.13
2023-03-16T19:12:14.624Z,43.00
2023-03-16T19:14:41.426Z,43.10
2023-03-16T19:17:09.016Z,43.36
2023-03-16T19:19:35.860Z,43.62
2023-03-16T19:22:09.899Z,43.69
2023-03-16T19:24:46.264Z,43.59
2023-03-16T19:27:25.732Z,43.96
2023-03-16T19:29:56.086Z,43.91
2023-03-16T19:32:25.562Z,44.24
2023-03-16T19:34:55.040Z,44.50
2023-03-16T19:37:24.149Z,44.38
2023-03-16T19:39:51.544Z,44.27
2023-03-16T19:42:55.771Z,44.30
2023-03-16T19:45:31.017Z,44.79
2023-03-16T19:47:58.035Z,44.25
2023-03-16T19:50:28.182Z,44.74
2023-03-16T19:53:01.269Z,44.80
2023-03-16T19:55:34.594Z,44.97
2023-03-16T19:58:06.174Z,45.02
2023-03-16T20:00:34.488Z,45.01
2023-03-16T20:03:01.714Z,44.93
2023-03-16T20:05:30.434Z,45.25
2023-03-16T20:07:58.836Z,45.43
2023-03-16T20:10:28.447Z,45.38
2023-03-16T20:13:00.398Z,45.67
2023-03-16T20:15:34.234Z,45.42
2023-03-16T20:18:01.236Z,45.65
2023-03-16T20:20:33.269Z,45.52
2023-03-16T20:23:01.598Z,45.73
2023-03-16T20:25:35.352Z,45.73
2023-03-16T20:30:48.263Z,45.67
2023-03-16T20:33:18.740Z,45.75
2023-03-16T20:35:46.632Z,45.97
2023-03-16T20:38:14.487Z,45.75
2023-03-16T20:40:42.337Z,45.93
2023-03-16T20:43:27.746Z,45.92
2023-03-16T20:45:56.891Z,46.07
2023-03-16T20:48:25.644Z,45.72
2023-03-16T20:50:53.783Z,45.83
2023-03-16T20:53:21.666Z,45.62
2023-03-16T20:55:50.306Z,45.28
2023-03-16T20:58:25.764Z,45.67
2023-03-16T21:00:55.930Z,45.26
2023-03-16T21:03:25.422Z,45.49
2023-03-16T21:06:01.507Z,45.37
2023-03-16T21:08:28.528Z,45.42
2023-03-16T21:10:57.316Z,45.71
2023-03-16T21:13:32.377Z,45.54
2023-03-16T21:16:02.087Z,45.68
2023-03-16T21:18:30.576Z,45.63
2023-03-16T21:20:59.012Z,45.95
2023-03-16T21:23:26.100Z,46.21
2023-03-16T21:25:55.920Z,46.34
2023-03-16T21:28:31.432Z,46.46
2023-03-16T21:31:13.368Z,46.23
2023-03-16T21:33:40.804Z,46.38
2023-03-16T21:36:15.063Z,46.55
2023-03-16T21:38:42.112Z,46.73
2023-03-16T21:41:12.392Z,47.04
2023-03-16T21:43:39.710Z,47.14
2023-03-16T21:46:09.924Z,47.08
2023-03-16T21:48:38.333Z,47.58
2023-03-16T21:51:20.757Z,47.85
2023-03-16T21:53:50.526Z,47.92
2023-03-16T21:56:20.860Z,47.70
2023-03-16T21:58:47.827Z,47.86
2023-03-16T22:01:29.066Z,48.32
2023-03-16T22:03:58.178Z,48.23
2023-03-16T22:06:28.438Z,48.45
2023-03-16T22:08:56.508Z,48.43
2023-03-16T22:11:28.232Z,48.37
2023-03-16T22:13:56.309Z,48.82
2023-03-16T22:16:25.867Z,48.85
2023-03-16T22:18:56.581Z,48.95
2023-03-16T22:21:32.377Z,49.01
2023-03-16T22:24:05.511Z,49.33
2023-03-16T22:26:32.731Z,49.34
2023-03-16T22:29:00.855Z,49.56
2023-03-16T22:31:35.281Z,49.50
2023-03-16T22:34:03.635Z,49.30
2023-03-16T22:36:31.672Z,49.52
2023-03-16T22:39:00.729Z,49.66
2023-03-16T22:41:29.254Z,49.82
2023-03-16T22:43:56.992Z,50.07
2023-03-16T22:46:26.103Z,50.03
2023-03-16T22:48:58.516Z,49.87
2023-03-16T22:51:32.540Z,50.10
2023-03-16T22:54:04.058Z,50.05
2023-03-16T22:56:32.236Z,50.08
2023-03-16T22:59:03.927Z,50.12
2023-03-16T23:01:36.116Z,50.48
2023-03-16T23:04:03.516Z,50.38
2023-03-16T23:06:34.505Z,50.57
2023-03-16T23:09:01.497Z,50.67
2023-03-16T23:11:31.145Z,50.78
2023-03-16T23:13:58.388Z,51.03
2023-03-16T23:16:38.109Z,51.19
2023-03-16T23:19:27.955Z,51.33
2023-03-16T23:21:57.706Z,51.41
2023-03-16T23:24:51.039Z,51.55
2023-03-16T23:27:26.401Z,51.98
2023-03-16T23:29:53.408Z,51.98
2023-03-16T23:32:28.636Z,52.24
2023-03-16T23:35:05.814Z,52.21
2023-03-16T23:37:35.067Z,52.42
2023-03-16T23:40:01.809Z,52.42
2023-03-16T23:42:28.840Z,52.67
2023-03-16T23:44:56.090Z,52.57
2023-03-16T23:47:22.966Z,52.90
2023-03-16T23:49:52.076Z,53.10
2023-03-16T23:52:18.836Z,52.97
2023-03-16T23:54:45.789Z,53.18
2023-03-16T23:57:12.638Z,53.00
2023-03-16T23:59:39.385Z,52.99
